Time;durP1;ratioP1;P1;durP2;ratioP2;P2;SDS_P1;SDS_P2;PMS_P1;PMS_P2;Temp;Humidity;BMP_temperature;BMP_pressure;BME280_temperature;BME280_humidity;BME280_pressure;Samples;Min_cycle;Max_cycle;Signal;HPM_P1;HPM_P2
2022/03/26 00:01:40;;;;;;;48.60;33.80;;;8.20;40.60;;;8.14;62.30;102298.13;4936886;29;20244;-74
2022/03/26 00:04:09;;;;;;;48.67;33.28;;;8.30;43.20;;;8.11;62.66;102303.81;4937453;29;20173;-73
2022/03/26 00:06:38;;;;;;;47.85;35.13;;;8.20;44.10;;;7.98;63.04;102302.50;4936671;29;20177;-74
2022/03/26 00:09:07;;;;;;;50.30;36.08;;;8.20;46.20;;;7.98;63.22;102306.03;4936912;29;20209;-73
2022/03/26 00:11:36;;;;;;;57.25;37.17;;;8.10;48.60;;;7.95;63.24;102309.03;4936244;29;20457;-73
2022/03/26 00:14:05;;;;;;;53.45;36.60;;;8.10;49.60;;;7.94;63.50;102307.31;4935415;29;20272;-73
2022/03/26 00:16:35;;;;;;;49.47;36.15;;;8.10;51.40;;;7.97;63.46;102307.03;4936161;29;20201;-73
2022/03/26 00:19:04;;;;;;;49.65;36.20;;;8.10;52.90;;;7.82;63.89;102303.16;4935754;29;20173;-74
2022/03/26 00:21:33;;;;;;;54.33;36.25;;;8.00;55.10;;;8.04;63.31;102304.56;4936170;29;20272;-73
2022/03/26 00:24:02;;;;;;;47.80;32.42;;;8.10;56.60;;;7.93;63.46;102294.88;4936099;29;20610;-73
2022/03/26 00:26:31;;;;;;;50.55;35.75;;;8.10;55.30;;;7.94;63.58;102307.31;4936125;29;20173;-73
2022/03/26 00:29:00;;;;;;;46.50;34.72;;;8.00;57.00;;;7.77;63.79;102302.75;4934443;29;20193;-73
2022/03/26 00:31:33;;;;;;;49.58;34.25;;;7.90;58.10;;;7.97;63.57;102301.66;4918671;29;20204;-73
2022/03/26 00:34:03;;;;;;;54.28;39.42;;;8.00;59.90;;;7.99;63.63;102299.63;4935931;29;20189;-72
2022/03/26 00:36:33;;;;;;;40.20;31.17;;;8.00;58.90;;;7.86;63.52;102294.59;4935924;29;20283;-74
2022/03/26 00:39:02;;;;;;;49.75;33.53;;;7.90;59.70;;;7.98;63.27;102294.41;4935793;29;20247;-73
2022/03/26 00:41:32;;;;;;;45.90;30.88;;;8.00;59.90;;;8.03;63.23;102290.25;4936048;29;20248;-73
2022/03/26 00:44:01;;;;;;;47.00;32.75;;;8.10;59.60;;;8.06;63.15;102289.94;4936054;29;20177;-73
2022/03/26 00:46:30;;;;;;;46.00;32.97;;;8.10;58.60;;;7.97;63.24;102290.88;4919101;29;20193;-73
2022/03/26 00:48:59;;;;;;;46.75;32.83;;;8.10;58.80;;;7.93;63.65;102288.63;4935656;29;20400;-75
2022/03/26 00:51:30;;;;;;;44.50;32.42;;;8.00;59.10;;;7.97;63.39;102290.88;4935965;29;20181;-74
2022/03/26 00:53:59;;;;;;;47.85;34.47;;;8.00;61.10;;;7.86;63.41;102282.97;4936126;29;20598;-74
2022/03/26 00:56:27;;;;;;;41.47;30.73;;;8.00;59.90;;;7.87;63.59;102290.06;4934991;29;20295;-72
2022/03/26 00:58:56;;;;;;;42.95;30.33;;;8.00;61.50;;;7.78;63.64;102286.44;4936385;29;20636;-74
2022/03/26 01:01:25;;;;;;;37.40;31.83;;;7.90;63.00;;;7.59;64.47;102283.00;4936233;29;20698;-74
2022/03/26 01:03:54;;;;;;;46.67;31.27;;;7.80;66.10;;;7.82;63.71;102278.88;4935965;29;20342;-73
2022/03/26 01:06:23;;;;;;;44.90;30.40;;;7.80;66.60;;;7.78;63.73;102281.03;4935904;29;20192;-73
2022/03/26 01:08:54;;;;;;;44.85;31.35;;;7.90;66.50;;;7.75;63.99;102280.47;4936090;29;20216;-72
2022/03/26 01:11:23;;;;;;;46.00;30.73;;;7.80;67.70;;;7.72;64.02;102284.34;4936234;29;20236;-73
2022/03/26 01:13:55;;;;;;;48.03;31.88;;;7.80;67.70;;;7.81;63.85;102280.72;4936247;29;20228;-74
2022/03/26 01:16:25;;;;;;;45.60;30.98;;;7.90;67.60;;;7.60;64.02;102273.91;4918252;29;20764;-72
2022/03/26 01:18:56;;;;;;;38.47;30.33;;;7.80;67.70;;;7.55;64.46;102277.03;4935395;29;20189;-73
2022/03/26 01:21:25;;;;;;;43.58;29.55;;;7.70;70.20;;;7.64;64.29;102283.38;4935531;29;20732;-72
2022/03/26 01:23:55;;;;;;;44.80;31.13;;;7.70;72.60;;;7.63;64.02;102273.59;4936298;29;20276;-72
2022/03/26 01:26:24;;;;;;;46.35;33.20;;;7.70;72.70;;;7.61;64.05;102272.91;4918496;29;20192;-73
2022/03/26 01:28:53;;;;;;;41.17;28.73;;;7.70;72.60;;;7.59;64.37;102270.38;4935341;29;20237;-73
2022/03/26 01:31:22;;;;;;;51.05;29.73;;;7.70;73.20;;;7.57;64.44;102266.13;4936526;29;20213;-73
2022/03/26 01:33:52;;;;;;;39.95;32.03;;;7.70;74.90;;;7.57;64.43;102264.28;4919290;29;20720;-73
2022/03/26 01:36:22;;;;;;;43.03;31.38;;;7.60;75.90;;;7.58;64.35;102267.81;4936475;29;20197;-74
2022/03/26 01:38:51;;;;;;;44.35;29.75;;;7.60;76.00;;;7.55;64.50;102263.56;4936637;29;20201;-74
2022/03/26 01:41:22;;;;;;;42.70;31.42;;;7.60;77.90;;;7.43;64.77;102262.91;4934793;29;20217;-74
2022/03/26 01:43:51;;;;;;;39.10;29.02;;;7.60;79.00;;;7.40;64.79;102254.31;4935456;29;20188;-74
2022/03/26 01:46:20;;;;;;;41.63;31.25;;;7.50;80.80;;;7.31;65.12;102255.19;4936243;29;20181;-74
2022/03/26 01:48:51;;;;;;;41.80;29.73;;;7.40;82.10;;;7.33;65.16;102256.72;4935374;29;20244;-74
2022/03/26 01:51:21;;;;;;;46.85;31.63;;;7.40;84.80;;;7.28;65.47;102258.16;4935800;29;20248;-74
2022/03/26 01:53:53;;;;;;;47.50;34.28;;;7.40;86.20;;;7.34;65.10;102261.13;4918471;29;20200;-74
2022/03/26 01:56:25;;;;;;;42.67;30.13;;;7.40;87.30;;;7.30;65.06;102254.34;4935369;29;20188;-75
2022/03/26 01:58:54;;;;;;;40.83;30.35;;;7.40;86.70;;;7.24;65.63;102249.53;4935730;29;20181;-73
2022/03/26 02:01:31;;;;;;;47.67;30.35;;;7.30;88.00;;;7.13;65.70;102252.41;4934135;29;20647;-73
2022/03/26 02:04:01;;;;;;;40.10;31.08;;;7.30;89.80;;;7.11;65.91;102249.03;4918146;29;20189;-74
2022/03/26 02:06:32;;;;;;;44.78;30.95;;;7.30;90.70;;;7.16;65.69;102240.50;4935301;29;20197;-72
2022/03/26 02:09:04;;;;;;;47.70;32.03;;;7.30;90.80;;;7.14;65.64;102237.94;4918460;29;20287;-72
2022/03/26 02:11:37;;;;;;;43.63;30.88;;;7.30;90.90;;;7.19;65.38;102243.75;4918092;29;20607;-73
2022/03/26 02:14:08;;;;;;;48.65;30.85;;;7.30;91.20;;;7.12;65.61;102239.94;4935721;29;20229;-73
2022/03/26 02:16:40;;;;;;;43.13;30.65;;;7.20;91.10;;;7.13;65.49;102248.84;4935041;29;20196;-73
2022/03/26 02:19:11;;;;;;;47.63;32.05;;;7.30;91.70;;;7.14;65.81;102259.50;4917911;29;20224;-73
2022/03/26 02:21:41;;;;;;;42.22;28.50;;;7.20;92.20;;;7.03;66.21;102251.59;4934938;29;20184;-73
2022/03/26 02:24:10;;;;;;;41.33;29.90;;;7.20;92.30;;;6.88;66.38;102250.34;4934954;29;20173;-74
2022/03/26 02:26:39;;;;;;;43.08;31.08;;;7.10;93.20;;;6.93;66.42;102248.06;4933822;29;20561;-74
2022/03/26 02:29:12;;;;;;;45.60;30.58;;;7.10;94.00;;;6.90;66.48;102242.97;4934701;29;20200;-74
2022/03/26 02:31:41;;;;;;;44.50;31.73;;;7.10;94.30;;;6.95;66.40;102241.56;4917710;29;20244;-73
2022/03/26 02:34:10;;;;;;;40.13;29.58;;;7.00;95.10;;;6.94;66.03;102226.41;4935003;29;20236;-74
2022/03/26 02:36:39;;;;;;;42.03;30.25;;;7.10;94.50;;;6.88;66.51;102234.19;4918713;29;20619;-74
2022/03/26 02:39:09;;;;;;;43.47;30.38;;;7.00;94.20;;;6.84;66.59;102230.09;4933537;29;20204;-73
2022/03/26 02:41:38;;;;;;;42.97;29.33;;;7.00;95.20;;;6.86;66.44;102230.81;4917728;29;20597;-73
2022/03/26 02:44:07;;;;;;;47.33;28.85;;;7.00;95.20;;;6.81;66.58;102231.25;4935456;29;20191;-73
2022/03/26 02:46:38;;;;;;;44.13;31.13;;;6.90;95.40;;;6.77;66.87;102234.38;4935173;29;20180;-73
2022/03/26 02:49:07;;;;;;;44.58;29.60;;;6.90;95.70;;;6.76;66.77;102227.31;4933361;29;20263;-74
2022/03/26 02:51:36;;;;;;;43.70;29.90;;;6.90;96.20;;;6.88;66.50;102229.66;4917572;29;20239;-74
2022/03/26 02:54:05;;;;;;;48.60;30.60;;;6.90;96.30;;;6.89;66.51;102227.81;4934963;29;20543;-73
2022/03/26 02:56:35;;;;;;;42.85;29.02;;;6.90;95.50;;;6.88;66.22;102224.28;4937728;29;20296;-74
2022/03/26 02:59:04;;;;;;;51.17;31.70;;;7.00;95.30;;;6.88;66.40;102226.13;4942837;29;20210;-73
2022/03/26 03:01:33;;;;;;;49.67;31.58;;;7.00;95.00;;;6.90;66.30;102237.59;4941308;29;20200;-74
2022/03/26 03:04:02;;;;;;;47.05;30.58;;;7.00;95.00;;;6.85;66.49;102231.81;4927953;29;20249;-74
2022/03/26 03:06:31;;;;;;;41.70;31.58;;;6.90;95.30;;;6.74;66.60;102234.66;4928156;29;20205;-73
2022/03/26 03:09:00;;;;;;;44.50;30.20;;;6.90;95.40;;;6.75;66.82;102225.59;4940012;29;20176;-74
2022/03/26 03:11:29;;;;;;;44.97;28.83;;;6.80;96.40;;;6.63;67.47;102227.63;4922543;29;20247;-75
2022/03/26 03:14:00;;;;;;;45.85;31.70;;;6.80;97.40;;;6.76;66.99;102228.16;4922815;29;20283;-75
2022/03/26 03:16:29;;;;;;;45.10;31.75;;;6.80;97.10;;;6.74;66.96;102224.75;4939614;29;20193;-74
2022/03/26 03:18:58;;;;;;;47.63;31.70;;;6.80;96.80;;;6.66;67.03;102221.09;4939426;29;20201;-73
2022/03/26 03:21:27;;;;;;;51.30;32.85;;;6.80;97.10;;;6.72;67.23;102223.22;4938893;29;20177;-74
2022/03/26 03:23:56;;;;;;;44.92;30.27;;;6.80;97.10;;;6.66;67.21;102221.09;4937912;29;20611;-74
2022/03/26 03:26:25;;;;;;;51.45;30.83;;;6.80;97.30;;;6.69;67.06;102220.78;4938434;29;20189;-73
2022/03/26 03:28:54;;;;;;;42.85;31.30;;;6.70;98.30;;;6.68;67.39;102222.63;4938345;29;20553;-73
2022/03/26 03:31:24;;;;;;;49.85;33.92;;;6.80;98.70;;;6.65;67.24;102220.25;4921647;29;20719;-73
2022/03/26 03:33:53;;;;;;;46.95;30.20;;;6.70;98.70;;;6.63;67.59;102221.38;4937237;29;20280;-72
2022/03/26 03:36:22;;;;;;;42.33;30.83;;;6.70;99.10;;;6.62;67.83;102214.31;4938280;29;20215;-73
2022/03/26 03:38:51;;;;;;;49.30;30.98;;;6.70;99.70;;;6.48;68.17;102215.59;4938196;28;20574;-72
2022/03/26 03:41:20;;;;;;;47.90;30.88;;;6.60;99.90;;;6.47;68.00;102228.19;4920728;29;20231;-73
2022/03/26 03:43:48;;;;;;;43.42;31.38;;;6.60;99.90;;;6.43;68.45;102228.63;4938637;29;20716;-74
2022/03/26 03:46:17;;;;;;;45.70;30.63;;;6.60;99.90;;;6.45;68.29;102223.94;4937695;29;20193;-74
2022/03/26 03:48:48;;;;;;;42.08;30.15;;;6.60;99.90;;;6.47;68.53;102225.50;4937619;29;20197;-75
2022/03/26 03:51:17;;;;;;;40.38;29.63;;;6.60;99.90;;;6.35;68.38;102234.72;4937521;29;20775;-74
2022/03/26 03:53:45;;;;;;;49.25;32.95;;;6.50;99.90;;;6.33;68.85;102235.84;4937412;29;20197;-73
2022/03/26 03:56:14;;;;;;;45.95;30.25;;;6.50;99.90;;;6.36;68.90;102219.44;4937839;29;20296;-73
2022/03/26 03:58:43;;;;;;;51.67;33.08;;;6.40;99.90;;;6.26;69.33;102211.38;4937453;29;20197;-73
2022/03/26 04:01:12;;;;;;;46.83;30.40;;;6.40;99.90;;;6.16;69.44;102221.28;4936817;29;20223;-73
2022/03/26 04:03:41;;;;;;;51.65;32.80;;;6.30;99.90;;;6.14;69.79;102215.19;4920834;29;20635;-73
2022/03/26 04:06:11;;;;;;;53.47;31.77;;;6.30;99.90;;;6.19;69.51;102210.25;4919820;29;20668;-73
2022/03/26 04:08:40;;;;;;;45.13;33.00;;;6.30;99.90;;;6.13;70.13;102218.88;4937421;29;20172;-73
2022/03/26 04:11:09;;;;;;;49.97;32.47;;;6.20;99.90;;;6.15;69.99;102211.50;4937555;29;20291;-72
2022/03/26 04:13:38;;;;;;;52.20;33.28;;;6.20;99.90;;;6.21;70.00;102210.94;4937662;29;20205;-74
2022/03/26 04:16:07;;;;;;;43.47;31.52;;;6.30;99.90;;;6.21;70.02;102219.00;4937724;29;20193;-74
2022/03/26 04:18:36;;;;;;;49.70;31.90;;;6.30;99.90;;;6.18;69.84;102221.13;4937266;29;20602;-73
2022/03/26 04:21:05;;;;;;;47.08;32.20;;;6.30;99.90;;;6.07;70.27;102220.28;4937542;29;20711;-73
2022/03/26 04:23:36;;;;;;;53.88;33.90;;;6.20;99.90;;;6.06;70.33;102229.31;4937575;29;20252;-75
2022/03/26 04:26:05;;;;;;;44.92;31.88;;;6.20;99.90;;;5.92;70.86;102213.63;4981453;23;20270;-69
2022/03/26 04:28:36;;;;;;;45.13;31.48;;;6.10;99.90;;;6.07;70.53;102206.00;4937410;29;20276;-69
2022/03/26 04:31:05;;;;;;;46.33;32.75;;;6.10;99.90;;;5.99;70.81;102200.47;4899775;29;20281;-69
2022/03/26 04:33:34;;;;;;;53.97;33.03;;;6.10;99.90;;;6.03;70.66;102201.91;4899616;29;20210;-69
2022/03/26 04:36:03;;;;;;;48.97;31.15;;;6.10;99.90;;;5.95;70.88;102213.34;4899654;29;20202;-69
2022/03/26 04:38:31;;;;;;;54.70;35.65;;;6.10;99.90;;;5.98;71.37;102209.53;4899360;29;20217;-69
2022/03/26 04:41:02;;;;;;;46.38;30.20;;;6.00;99.90;;;6.05;70.90;102224.13;4922434;23;20213;-66
2022/03/26 04:43:30;;;;;;;51.78;32.45;;;6.10;99.90;;;5.94;71.38;102218.88;4975619;28;20179;-66
2022/03/26 04:45:59;;;;;;;51.63;33.20;;;6.00;99.90;;;5.95;71.54;102223.25;4975436;28;20275;-66
2022/03/26 04:48:29;;;;;;;47.47;34.20;;;6.00;99.90;;;5.96;71.16;102222.25;4975014;28;20191;-67
2022/03/26 04:50:58;;;;;;;58.47;34.25;;;6.00;99.90;;;5.97;71.24;102223.94;4975107;28;20214;-68
2022/03/26 04:53:27;;;;;;;50.08;34.75;;;6.00;99.90;;;5.99;71.30;102233.59;4974807;28;20259;-67
2022/03/26 04:55:55;;;;;;;56.70;36.72;;;6.00;99.90;;;5.96;71.33;102228.47;4974932;28;20194;-66
2022/03/26 04:58:26;;;;;;;55.28;34.88;;;6.00;99.90;;;5.95;71.05;102234.00;4974785;28;20258;-68
2022/03/26 05:00:54;;;;;;;59.00;36.35;;;6.00;99.90;;;5.97;71.28;102234.69;4974731;28;20211;-67
2022/03/26 05:03:24;;;;;;;54.65;35.08;;;6.00;99.90;;;5.92;71.29;102232.44;4974835;28;20246;-67
2022/03/26 05:05:53;;;;;;;59.97;36.38;;;6.00;99.90;;;5.91;71.64;102230.72;4974944;28;20259;-67
2022/03/26 05:08:21;;;;;;;56.28;35.60;;;5.90;99.90;;;5.90;71.29;102229.06;4974703;28;20547;-67
2022/03/26 05:10:50;;;;;;;62.63;38.75;;;6.00;99.90;;;5.95;71.23;102225.94;4974789;28;20214;-68
2022/03/26 05:13:19;;;;;;;64.57;38.05;;;6.00;99.90;;;5.91;71.42;102229.88;4974887;28;20183;-68
2022/03/26 05:15:49;;;;;;;57.55;36.75;;;6.00;99.90;;;5.91;71.92;102222.66;4975014;28;20541;-67
2022/03/26 05:18:18;;;;;;;60.00;39.08;;;5.90;99.90;;;5.91;71.71;102224.50;4973593;28;20215;-67
2022/03/26 05:20:47;;;;;;;64.10;38.47;;;5.90;99.90;;;6.02;71.43;102221.69;4974522;28;20290;-66
2022/03/26 05:23:16;;;;;;;63.38;39.28;;;6.00;99.90;;;6.10;71.28;102224.50;4974490;28;20584;-66
2022/03/26 05:25:44;;;;;;;63.22;37.60;;;6.10;99.90;;;6.16;71.02;102223.94;4974860;28;20740;-65
2022/03/26 05:28:13;;;;;;;64.10;37.17;;;6.10;99.90;;;6.21;71.22;102215.47;4974905;28;20172;-66
2022/03/26 05:30:43;;;;;;;64.35;40.85;;;6.20;99.90;;;6.26;70.97;102223.94;4975481;28;20290;-66
2022/03/26 05:33:13;;;;;;;64.90;40.30;;;6.20;99.90;;;6.44;70.36;102222.25;4976486;28;20254;-67
2022/03/26 05:35:42;;;;;;;61.20;37.38;;;6.40;99.90;;;6.49;70.07;102220.81;4976714;28;20262;-67
2022/03/26 05:38:11;;;;;;;63.13;40.03;;;6.40;99.90;;;6.52;69.70;102220.56;4976396;28;20214;-67
2022/03/26 05:40:40;;;;;;;55.92;38.05;;;6.50;99.90;;;6.67;69.61;102222.78;4975707;28;20239;-66
2022/03/26 05:43:09;;;;;;;59.80;39.40;;;6.60;99.90;;;6.66;69.72;102224.63;4958233;28;20294;-66
2022/03/26 05:45:38;;;;;;;58.63;40.30;;;6.60;99.90;;;6.74;69.39;102229.28;4976117;28;20180;-66
2022/03/26 05:48:08;;;;;;;70.50;44.22;;;6.70;99.90;;;6.81;69.07;102235.78;4976739;28;20187;-67
2022/03/26 05:50:38;;;;;;;63.28;39.10;;;6.80;99.90;;;6.82;68.51;102226.72;4975596;28;20191;-66
2022/03/26 05:53:07;;;;;;;63.95;41.20;;;6.80;99.90;;;6.93;68.61;102237.31;4974474;28;20270;-67
2022/03/26 05:55:35;;;;;;;61.33;39.10;;;6.90;99.90;;;6.98;68.32;102232.34;4974436;28;20655;-67
2022/03/26 05:58:05;;;;;;;62.08;39.97;;;6.90;99.90;;;6.98;67.88;102235.03;4974770;28;20210;-67
2022/03/26 06:00:33;;;;;;;59.88;39.20;;;6.90;99.90;;;7.02;67.85;102236.41;4974915;28;20199;-67
2022/03/26 06:03:02;;;;;;;69.05;38.42;;;7.00;99.90;;;7.20;67.38;102240.06;4974769;28;20525;-66
2022/03/26 06:05:31;;;;;;;68.43;41.80;;;7.10;99.90;;;7.16;67.14;102227.91;4983259;28;20183;-66
2022/03/26 06:08:01;;;;;;;60.58;41.00;;;7.10;99.90;;;7.20;67.28;102232.00;4987034;28;20210;-66
2022/03/26 06:10:30;;;;;;;62.50;39.30;;;7.10;99.80;;;7.27;67.26;102233.06;4981388;28;20278;-66
2022/03/26 06:12:59;;;;;;;58.65;36.88;;;7.20;99.70;;;7.42;66.80;102226.19;4974429;28;20172;-66
2022/03/26 06:15:27;;;;;;;71.05;42.92;;;7.30;99.10;;;7.52;66.29;102219.91;4974163;28;20195;-66
2022/03/26 06:18:13;;;;;;;70.75;39.15;;;7.40;98.20;;;7.61;66.56;102224.41;4974028;28;20206;-67
2022/03/26 06:20:43;;;;;;;56.85;38.85;;;7.50;97.80;;;7.67;66.29;102232.75;4973814;28;20668;-67
2022/03/26 06:23:13;;;;;;;60.15;38.97;;;7.50;97.20;;;7.76;66.17;102222.88;4973998;28;20552;-67
2022/03/26 06:25:42;;;;;;;58.00;39.67;;;7.60;96.20;;;7.83;65.68;102219.44;4974284;28;20274;-67
2022/03/26 06:28:11;;;;;;;56.53;39.15;;;7.80;95.40;;;7.93;65.60;102224.78;4973363;28;20287;-67
2022/03/26 06:30:40;;;;;;;57.25;39.90;;;7.80;95.00;;;8.01;65.42;102224.00;4955711;28;20302;-68
2022/03/26 06:33:09;;;;;;;57.15;38.28;;;7.90;93.60;;;8.05;65.25;102223.53;4973662;28;20183;-66
2022/03/26 06:35:38;;;;;;;56.63;36.00;;;8.00;93.10;;;8.16;64.83;102217.06;4973794;28;20601;-67
2022/03/26 06:38:07;;;;;;;67.18;41.15;;;8.10;92.00;;;8.27;64.56;102217.69;4973654;28;20193;-68
2022/03/26 06:40:37;;;;;;;60.63;40.55;;;8.20;91.20;;;8.31;64.53;102212.00;4973347;28;20182;-66
2022/03/26 06:43:07;;;;;;;55.95;41.08;;;8.20;90.50;;;8.46;64.19;102216.72;4973778;28;20199;-66
2022/03/26 06:45:37;;;;;;;63.63;39.28;;;8.40;89.00;;;8.56;64.00;102216.63;4955956;28;20640;-66
2022/03/26 06:48:07;;;;;;;51.92;39.22;;;8.50;86.60;;;8.61;63.88;102208.91;4973698;28;20175;-67
2022/03/26 06:50:36;;;;;;;57.88;40.05;;;8.50;84.50;;;8.59;63.76;102221.69;4973576;28;20695;-66
2022/03/26 06:53:05;;;;;;;58.15;41.10;;;8.50;81.30;;;8.65;63.71;102230.00;4973596;28;20274;-67
2022/03/26 06:55:33;;;;;;;56.63;38.65;;;8.60;80.10;;;8.77;63.55;102230.59;4973790;28;20613;-67
2022/03/26 06:58:04;;;;;;;56.10;40.50;;;8.70;79.40;;;8.80;63.18;102227.59;4973675;28;20182;-67
2022/03/26 07:00:32;;;;;;;58.78;39.13;;;8.70;76.40;;;8.87;63.26;102225.94;4973493;28;20195;-67
2022/03/26 07:03:01;;;;;;;56.45;39.78;;;8.80;75.40;;;9.08;62.81;102221.00;4973753;28;20270;-67
2022/03/26 07:05:31;;;;;;;61.22;41.00;;;8.90;73.70;;;9.17;62.03;102211.09;4973683;28;20684;-67
2022/03/26 07:08:00;;;;;;;59.83;39.33;;;9.10;67.00;;;9.31;61.97;102220.44;4973980;28;20188;-67
2022/03/26 07:10:29;;;;;;;58.72;39.58;;;9.20;65.00;;;9.46;61.44;102221.53;4973643;28;20234;-67
2022/03/26 07:12:58;;;;;;;53.67;38.92;;;9.30;60.80;;;9.70;60.78;102218.91;4973256;28;20259;-67
2022/03/26 07:15:31;;;;;;;54.78;40.15;;;9.50;59.10;;;9.77;60.56;102214.53;4973597;28;20184;-67
2022/03/26 07:18:01;;;;;;;53.63;38.03;;;9.60;56.10;;;9.78;60.62;102226.22;4973668;28;20270;-66
2022/03/26 07:20:30;;;;;;;57.92;38.92;;;9.60;54.50;;;10.10;60.06;102230.84;4973331;28;20672;-67
2022/03/26 07:23:02;;;;;;;52.88;36.17;;;9.80;54.10;;;10.29;59.06;102227.84;4973445;28;20190;-68
2022/03/26 07:25:31;;;;;;;46.28;36.13;;;10.10;47.30;;;10.31;58.88;102236.66;4973106;28;20560;-67
2022/03/26 07:28:00;;;;;;;53.08;39.50;;;10.10;44.70;;;10.21;58.88;102233.25;4973272;28;20274;-70
2022/03/26 07:30:31;;;;;;;55.03;36.40;;;10.20;42.10;;;10.18;59.36;102237.13;4973498;28;20172;-67
2022/03/26 07:33:00;;;;;;;55.28;37.75;;;10.10;42.30;;;10.32;58.99;102232.91;4973878;28;20187;-68
2022/03/26 07:35:35;;;;;;;54.03;36.50;;;10.20;41.90;;;10.36;58.83;102223.47;4972933;28;20187;-66
2022/03/26 07:38:04;;;;;;;46.05;34.45;;;10.30;40.70;;;10.52;58.60;102225.31;4975449;28;20258;-68
2022/03/26 07:40:33;;;;;;;53.92;43.78;;;10.40;40.50;;;10.71;57.94;102225.81;4974846;28;20207;-66
2022/03/26 07:43:03;;;;;;;51.00;35.75;;;10.50;38.20;;;10.67;58.09;102226.31;4969993;28;20196;-66
2022/03/26 07:45:33;;;;;;;48.30;35.28;;;10.60;37.00;;;10.74;58.24;102213.78;4985996;28;20184;-65
2022/03/26 07:48:02;;;;;;;54.50;35.20;;;10.60;37.00;;;10.61;58.40;102214.28;4980314;28;20758;-66
2022/03/26 07:50:34;;;;;;;50.22;36.63;;;10.60;36.00;;;10.86;57.97;102212.41;4977400;28;20238;-68
2022/03/26 07:53:03;;;;;;;44.70;34.08;;;10.70;36.50;;;10.94;57.85;102206.16;4976464;28;20627;-67
2022/03/26 07:55:32;;;;;;;45.35;35.92;;;10.80;34.90;;;11.10;57.56;102209.63;4976513;28;20254;-64
2022/03/26 07:58:01;;;;;;;46.55;35.42;;;11.00;35.00;;;11.34;57.14;102219.56;4976296;28;20176;-66
2022/03/26 08:00:30;;;;;;;49.03;34.70;;;11.10;33.60;;;11.57;56.68;102230.50;4976264;28;20207;-66
2022/03/26 08:03:01;;;;;;;43.00;32.20;;;11.30;32.40;;;11.48;56.83;102232.38;4976161;28;20637;-66
2022/03/26 08:05:29;;;;;;;44.30;32.23;;;11.30;31.40;;;11.54;56.72;102223.53;4976588;28;20867;-66
2022/03/26 08:07:59;;;;;;;49.60;35.50;;;11.40;30.40;;;11.89;56.01;102215.94;4975869;28;20959;-64
2022/03/26 08:10:28;;;;;;;40.20;32.20;;;11.60;30.00;;;11.84;55.96;102218.34;4976082;28;20433;-66
2022/03/26 08:12:57;;;;;;;49.87;35.47;;;11.70;28.80;;;12.04;55.61;102225.00;4976009;28;20522;-65
2022/03/26 08:15:26;;;;;;;40.83;30.87;;;11.80;28.30;;;11.93;55.83;102222.69;4975623;28;20455;-66
2022/03/26 08:17:58;;;;;;;47.67;32.90;;;11.90;27.50;;;12.14;55.42;102225.63;4975308;28;20427;-66
2022/03/26 08:20:29;;;;;;;43.53;32.63;;;12.00;27.00;;;12.31;55.16;102226.31;4975097;28;20482;-66
2022/03/26 08:22:58;;;;;;;40.87;29.90;;;12.10;26.30;;;12.33;55.15;102229.72;4975388;28;20427;-68
2022/03/26 08:28:16;;;;;;;42.93;33.07;;;12.20;25.70;;;12.40;55.14;102227.94;4975004;28;20442;-67
2022/03/26 08:30:45;;;;;;;40.40;29.93;;;12.20;25.60;;;12.72;54.14;102224.97;4974808;28;20529;-66
2022/03/26 08:33:15;;;;;;;37.73;29.83;;;12.50;24.40;;;12.92;53.95;102219.84;4974737;28;20419;-68
2022/03/26 08:35:46;;;;;;;41.83;31.07;;;12.70;23.70;;;13.54;52.73;102214.06;4974961;28;20434;-68
2022/03/26 08:38:18;;;;;;;41.00;31.43;;;13.10;22.90;;;13.85;51.75;102220.94;4974907;28;20912;-66
2022/03/26 08:40:47;;;;;;;40.17;29.60;;;13.50;20.70;;;13.67;51.83;102216.94;4974956;28;21033;-66
2022/03/26 08:43:16;;;;;;;33.27;27.00;;;13.50;19.50;;;13.50;52.51;102229.94;4974193;28;20401;-66
2022/03/26 08:45:45;;;;;;;33.23;26.80;;;13.40;19.30;;;13.26;53.29;102230.22;4975041;28;20939;-68
2022/03/26 08:48:15;;;;;;;39.70;28.07;;;13.30;19.80;;;13.16;53.71;102226.94;4975559;28;20401;-67
2022/03/26 08:50:46;;;;;;;32.83;26.50;;;13.10;20.50;;;13.34;53.27;102230.97;4975249;28;20432;-67
2022/03/26 08:53:15;;;;;;;39.63;28.17;;;13.20;20.40;;;13.19;53.81;102238.28;4974250;28;20793;-67
2022/03/26 08:55:44;;;;;;;37.30;27.10;;;13.10;20.50;;;13.15;53.95;102231.53;4974362;28;20427;-67
2022/03/26 08:58:12;;;;;;;32.60;25.33;;;13.00;20.70;;;12.97;54.45;102233.72;4974349;28;20429;-67
2022/03/26 09:00:51;;;;;;;29.53;23.97;;;13.00;21.10;;;13.13;54.22;102232.72;4973740;28;20474;-67
2022/03/26 09:03:21;;;;;;;27.90;20.90;;;13.00;21.50;;;12.97;54.80;102233.72;4973157;28;20447;-65
2022/03/26 09:05:59;;;;;;;28.50;20.53;;;12.90;21.60;;;13.01;55.01;102230.47;4973598;28;20445;-67
2022/03/26 09:08:28;;;;;;;28.17;19.10;;;12.80;22.30;;;13.02;55.08;102234.84;4973772;28;20530;-68
2022/03/26 09:10:56;;;;;;;24.90;18.40;;;12.90;22.70;;;13.33;54.39;102248.31;4966222;28;20418;-67
2022/03/26 09:13:25;;;;;;;27.13;18.80;;;13.10;22.40;;;13.39;54.42;102233.97;4973895;28;20871;-66
2022/03/26 09:15:54;;;;;;;26.03;19.27;;;13.20;22.20;;;13.70;53.65;102235.63;4974084;28;21019;-67
2022/03/26 09:18:24;;;;;;;27.10;18.23;;;13.40;21.60;;;13.42;54.65;102236.28;4974166;28;20912;-66
2022/03/26 09:20:53;;;;;;;27.67;18.57;;;13.30;22.30;;;13.29;54.95;102244.28;4974247;28;20453;-69
2022/03/26 09:23:24;;;;;;;27.93;19.97;;;13.20;22.30;;;13.59;54.14;102242.38;4973876;28;20426;-67
2022/03/26 09:25:53;;;;;;;30.93;19.93;;;13.40;22.00;;;13.39;54.70;102242.13;4973701;28;20525;-67
2022/03/26 09:28:21;;;;;;;28.37;22.00;;;13.40;22.10;;;13.27;55.01;102251.75;4974291;28;20453;-66
2022/03/26 09:30:50;;;;;;;27.00;21.80;;;13.30;22.20;;;13.09;55.83;102234.94;4972664;28;20998;-67
2022/03/26 09:33:19;;;;;;;28.57;23.03;;;13.10;23.00;;;13.06;55.80;102248.91;4973995;28;20429;-67
2022/03/26 09:35:48;;;;;;;27.50;21.70;;;13.10;22.90;;;13.49;54.95;102245.41;4956609;28;20490;-66
2022/03/26 09:38:17;;;;;;;29.63;21.93;;;13.20;23.40;;;13.09;55.68;102237.66;4974566;28;20437;-68
2022/03/26 09:40:48;;;;;;;27.13;22.30;;;13.10;23.10;;;13.15;55.86;102249.69;4974314;28;20475;-66
2022/03/26 09:43:19;;;;;;;29.30;25.20;;;13.00;24.50;;;13.21;55.44;102252.53;4973660;28;20439;-67
2022/03/26 09:45:48;;;;;;;27.63;22.37;;;13.10;23.70;;;13.06;55.75;102243.47;4974581;28;20419;-66
2022/03/26 09:48:19;;;;;;;31.00;24.73;;;13.10;23.30;;;13.26;55.66;102241.94;4973820;28;20430;-65
2022/03/26 09:50:49;;;;;;;30.90;23.50;;;13.10;23.40;;;13.20;55.41;102248.13;4973601;28;20473;-66
2022/03/26 09:53:20;;;;;;;34.20;23.63;;;13.20;22.90;;;13.40;55.33;102241.09;4972880;28;20493;-67
2022/03/26 09:55:52;;;;;;;31.13;24.00;;;13.20;23.30;;;13.71;54.43;102248.16;4973812;28;20422;-67
2022/03/26 09:58:21;;;;;;;28.80;23.40;;;13.40;23.00;;;13.31;55.41;102242.19;4974133;28;20423;-67
2022/03/26 10:00:53;;;;;;;29.57;24.47;;;13.30;22.80;;;13.55;54.68;102234.78;4973433;28;21029;-67
2022/03/26 10:03:22;;;;;;;33.03;24.07;;;13.40;22.70;;;13.48;55.16;102232.81;4973777;28;20443;-66
2022/03/26 10:06:03;;;;;;;34.60;26.60;;;13.40;22.90;;;13.99;54.11;102240.97;4973128;28;20916;-66
2022/03/26 10:08:36;;;;;;;34.57;24.93;;;13.70;22.50;;;14.43;53.21;102237.28;4973256;28;20845;-68
2022/03/26 10:11:07;;;;;;;31.90;24.43;;;14.00;21.60;;;14.25;53.78;102246.72;4973150;28;20581;-67
2022/03/26 10:13:39;;;;;;;28.07;22.13;;;14.10;21.40;;;13.83;55.32;102241.22;4973135;28;20434;-68
2022/03/26 10:16:10;;;;;;;36.97;22.70;;;13.90;22.20;;;13.72;55.71;102236.25;4973013;28;20538;-66
2022/03/26 10:18:42;;;;;;;33.37;23.83;;;13.70;23.40;;;13.53;56.32;102224.09;4972795;28;20962;-66
2022/03/26 10:21:13;;;;;;;32.20;23.70;;;13.50;23.80;;;13.64;56.08;102225.50;4972617;28;20474;-67